Time;durP1;ratioP1;P1;durP2;ratioP2;P2;SDS_P1;SDS_P2;PMS_P1;PMS_P2;Temp;Humidity;BMP_temperature;BMP_pressure;BME280_temperature;BME280_humidity;BME280_pressure;Samples;Min_cycle;Max_cycle;Signal;HPM_P1;HPM_P2
2022/07/21 00:00:03;;;;;;;20.67;18.77;;;;;;;21.31;100.00;156842.72;4993180;28;20929;-81
2022/07/21 00:02:32;;;;;;;23.10;20.83;;;;;;;21.24;100.00;156825.72;4991920;28;20454;-81
2022/07/21 00:04:58;;;;;;;20.90;19.00;;;;;;;21.26;100.00;156830.94;4993117;28;20801;-83
2022/07/21 00:07:25;;;;;;;23.03;20.73;;;;;;;21.21;100.00;156817.91;4993270;28;20561;-81
2022/07/21 00:09:53;;;;;;;21.40;19.30;;;;;;;21.25;100.00;156828.34;4979512;28;20477;-83
2022/07/21 00:12:20;;;;;;;21.00;18.77;;;;;;;21.27;100.00;156833.56;4979518;28;20450;-81
2022/07/21 00:14:47;;;;;;;21.33;19.37;;;;;;;21.22;100.00;156820.53;4996936;28;20464;-83
2022/07/21 00:17:14;;;;;;;22.70;19.63;;;;;;;21.26;100.00;156829.66;4996946;28;20537;-83
2022/07/21 00:19:42;;;;;;;21.10;19.10;;;;;;;21.26;100.00;156829.66;4979285;28;20540;-82
2022/07/21 00:22:08;;;;;;;22.77;20.60;;;;;;;21.26;100.00;156830.94;4979282;28;20552;-83
2022/07/21 00:24:35;;;;;;;22.10;20.00;;;;;;;21.23;100.00;156824.41;4996707;28;20432;-83
2022/07/21 00:27:02;;;;;;;21.23;19.23;;;;;;;21.21;100.00;156819.22;4996401;28;20517;-82
2022/07/21 00:29:28;;;;;;;22.67;20.17;;;;;;;21.20;100.00;156816.63;4996666;28;20840;-82
2022/07/21 00:31:55;;;;;;;21.63;19.43;;;;;;;21.22;100.00;156820.53;4995572;28;20978;-83
2022/07/21 00:34:22;;;;;;;22.67;20.57;;;;;;;21.22;100.00;156820.53;4989423;28;20447;-81
2022/07/21 00:36:50;;;;;;;23.50;21.03;;;;;;;21.18;100.00;156810.09;4978852;28;20539;-82
2022/07/21 00:39:17;;;;;;;22.20;20.20;;;;;;;21.18;100.00;156810.09;4978833;28;20786;-81
2022/07/21 00:41:43;;;;;;;21.73;19.63;;;;;;;21.17;100.00;156808.78;4995996;28;20437;-81
2022/07/21 00:44:20;;;;;;;23.67;21.10;;;;;;;21.14;100.00;156800.94;4996465;28;20900;-82
2022/07/21 00:46:46;;;;;;;20.57;18.67;;;;;;;21.13;100.00;156798.31;4996065;28;20441;-83
2022/07/21 00:49:13;;;;;;;22.43;20.23;;;;;;;21.14;100.00;156799.63;4996038;28;20467;-83
2022/07/21 00:51:40;;;;;;;23.50;21.20;;;;;;;21.13;100.00;156798.31;4978645;28;20508;-81
2022/07/21 00:54:08;;;;;;;22.97;20.00;;;;;;;21.18;100.00;156811.38;4978502;28;20426;-81
2022/07/21 00:56:35;;;;;;;21.00;18.90;;;;;;;21.21;100.00;156817.91;4995808;28;20532;-81
2022/07/21 00:59:03;;;;;;;20.70;18.80;;;;;;;21.23;100.00;156823.16;4994775;28;21038;-81
2022/07/21 01:01:29;;;;;;;21.10;19.30;;;;;;;21.23;100.00;156823.16;4978689;28;20830;-82
2022/07/21 01:03:56;;;;;;;21.83;19.73;;;;;;;21.27;100.00;156833.56;4996003;28;20425;-81
2022/07/21 01:06:24;;;;;;;22.00;19.87;;;;;;;21.29;100.00;156838.78;4978161;28;20528;-81
2022/07/21 01:08:51;;;;;;;21.20;19.23;;;;;;;21.31;100.00;156842.72;4978136;28;20508;-82
2022/07/21 01:11:21;;;;;;;20.47;17.80;;;;;;;21.29;100.00;156838.78;4978308;28;20477;-81
2022/07/21 01:13:48;;;;;;;19.53;17.63;;;;;;;21.27;100.00;156833.56;4995649;28;21267;-81
2022/07/21 01:16:15;;;;;;;20.63;18.70;;;;;;;21.22;100.00;156821.84;4994380;28;20450;-81
2022/07/21 01:18:42;;;;;;;21.07;19.07;;;;;;;21.21;100.00;156817.91;4977825;28;20973;-82
2022/07/21 01:21:21;;;;;;;19.70;17.67;;;;;;;21.20;100.00;156815.31;4994685;28;20528;-83
2022/07/21 01:23:48;;;;;;;20.30;18.33;;;;;;;21.17;100.00;156807.47;4995879;28;20429;-83
2022/07/21 01:26:15;;;;;;;20.47;18.57;;;;;;;21.17;100.00;156807.47;4993816;28;21221;-83
2022/07/21 01:28:42;;;;;;;18.00;16.40;;;;;;;21.15;100.00;156802.25;4994233;28;20987;-83
2022/07/21 01:31:08;;;;;;;17.50;15.90;;;;;;;21.11;100.00;156791.81;4995543;28;20433;-83
2022/07/21 01:33:35;;;;;;;18.13;16.33;;;;;;;21.06;100.00;156778.69;4994389;28;20445;-83
2022/07/21 01:36:02;;;;;;;17.90;16.10;;;;;;;21.01;100.00;156765.66;4995156;28;20933;-82
2022/07/21 01:41:33;;;;;;;18.10;16.30;;;;;;;21.09;100.00;156787.91;4977821;28;20428;-81
2022/07/21 01:44:01;;;;;;;19.47;17.57;;;;;;;21.02;100.00;156768.28;4995005;28;20441;-81
2022/07/21 01:46:29;;;;;;;16.90;15.30;;;;;;;20.98;100.00;156759.13;4977689;28;20438;-80
2022/07/21 01:48:56;;;;;;;18.63;16.63;;;;;;;20.95;100.00;156750.00;4994966;28;20476;-82
2022/07/21 01:51:23;;;;;;;16.47;14.97;;;;;;;20.93;100.00;156744.78;4977575;28;20441;-82
2022/07/21 01:53:51;;;;;;;17.40;15.77;;;;;;;20.89;100.00;156735.63;4977672;28;20497;-83
2022/07/21 01:56:20;;;;;;;17.17;15.57;;;;;;;20.95;100.00;156750.00;4993474;28;20444;-83
2022/07/21 01:58:47;;;;;;;18.43;16.73;;;;;;;20.95;100.00;156750.00;4977185;28;20937;-83
2022/07/21 02:01:13;;;;;;;17.67;16.07;;;;;;;20.94;100.00;156747.41;4977168;28;20477;-83
2022/07/21 02:03:40;;;;;;;17.03;15.43;;;;;;;20.97;100.00;156755.25;4977785;28;20452;-84
2022/07/21 02:06:08;;;;;;;14.63;13.23;;;;;;;20.93;100.00;156744.78;4994057;28;20864;-85
2022/07/21 02:08:35;;;;;;;16.93;15.23;;;;;;;20.88;100.00;156733.06;4977498;28;20879;-85
2022/07/21 02:11:05;;;;;;;15.90;14.40;;;;;;;20.91;100.00;156739.56;4994310;28;20536;-86
2022/07/21 02:13:32;;;;;;;16.43;14.87;;;;;;;20.91;100.00;156739.56;4996068;28;20540;-86
2022/07/21 02:15:59;;;;;;;15.77;13.17;;;;;;;20.89;100.00;156734.38;4977561;28;20442;-86
2022/07/21 02:18:26;;;;;;;13.57;12.30;;;;;;;20.87;100.00;156729.09;4977735;28;20442;-86
2022/07/21 02:20:53;;;;;;;14.07;12.77;;;;;;;20.86;100.00;156726.53;4994902;28;20452;-85
2022/07/21 02:23:20;;;;;;;14.97;13.47;;;;;;;20.86;100.00;156727.84;4995445;28;20448;-85
2022/07/21 02:25:47;;;;;;;13.60;12.30;;;;;;;20.84;100.00;156721.28;4977678;28;20430;-83
2022/07/21 02:28:15;;;;;;;13.83;12.53;;;;;;;20.79;100.00;156708.22;4995058;28;20485;-83
2022/07/21 02:30:42;;;;;;;13.33;12.17;;;;;;;20.81;100.00;156713.47;4977190;28;20536;-83
2022/07/21 02:33:09;;;;;;;13.87;12.47;;;;;;;20.77;100.00;156703.03;4993316;28;21405;-85
2022/07/21 02:35:35;;;;;;;14.57;13.23;;;;;;;20.67;100.00;156676.94;4976880;28;20532;-84
2022/07/21 02:38:02;;;;;;;13.47;12.27;;;;;;;20.57;100.00;156653.44;4994643;28;20484;-84
2022/07/21 02:40:29;;;;;;;14.00;12.60;;;;;;;20.49;100.00;156632.56;4976887;28;20921;-84
2022/07/21 02:42:56;;;;;;;14.03;12.33;;;;;;;20.46;100.00;156623.47;4976440;28;20533;-83
2022/07/21 02:45:25;;;;;;;13.20;11.90;;;;;;;20.36;100.00;156598.66;4976394;28;20536;-85
2022/07/21 02:47:53;;;;;;;12.60;11.40;;;;;;;20.35;100.00;156596.06;4994587;28;20489;-85
2022/07/21 02:50:20;;;;;;;12.80;11.60;;;;;;;20.34;100.00;156592.13;4976965;28;20478;-84
2022/07/21 02:52:47;;;;;;;12.23;11.13;;;;;;;20.33;100.00;156590.81;4976772;28;20472;-85
2022/07/21 02:55:14;;;;;;;11.90;10.70;;;;;;;20.36;100.00;156598.66;4994215;28;20422;-84
2022/07/21 02:57:41;;;;;;;12.17;10.70;;;;;;;20.41;100.00;156611.69;4993927;28;20850;-83
2022/07/21 03:00:10;;;;;;;11.80;10.53;;;;;;;20.38;100.00;156603.91;4976615;28;20485;-83
2022/07/21 03:02:41;;;;;;;12.70;11.40;;;;;;;20.32;100.00;156588.25;4975990;28;20449;-83
2022/07/21 03:05:09;;;;;;;11.77;10.57;;;;;;;20.32;100.00;156586.94;4993324;28;20433;-83
2022/07/21 03:07:38;;;;;;;12.63;11.43;;;;;;;20.29;100.00;156580.41;4975495;28;20461;-83
2022/07/21 03:10:06;;;;;;;12.57;11.27;;;;;;;20.27;100.00;156573.88;4992122;28;20575;-83
2022/07/21 03:12:32;;;;;;;13.30;11.63;;;;;;;20.23;100.00;156563.38;4992895;28;20830;-83
2022/07/21 03:14:59;;;;;;;12.83;11.63;;;;;;;20.18;100.00;156551.66;4992944;28;20446;-83
2022/07/21 03:17:26;;;;;;;13.53;10.60;;;;;;;20.14;100.00;156539.94;4992791;28;20450;-83
2022/07/21 03:19:54;;;;;;;12.63;11.53;;;;;;;20.10;100.00;156529.47;4991703;28;20536;-83
2022/07/21 03:22:21;;;;;;;12.70;11.50;;;;;;;20.13;100.00;156538.63;4990170;28;20485;-83
2022/07/21 03:24:50;;;;;;;12.37;11.23;;;;;;;20.17;100.00;156547.75;4989443;28;20496;-82
2022/07/21 03:27:17;;;;;;;11.73;10.50;;;;;;;20.18;100.00;156550.34;4990988;28;20474;-75
2022/07/21 03:29:44;;;;;;;11.50;10.40;;;;;;;20.18;100.00;156551.66;4990396;28;20481;-75
2022/07/21 03:32:10;;;;;;;11.50;10.40;;;;;;;20.21;100.00;156559.50;4991743;28;20435;-75
2022/07/21 03:34:37;;;;;;;11.10;10.00;;;;;;;20.16;100.00;156546.44;4990145;28;20533;-75
2022/07/21 03:37:05;;;;;;;10.20;9.20;;;;;;;20.18;100.00;156550.34;4973900;28;20437;-75
2022/07/21 03:39:32;;;;;;;10.93;9.83;;;;;;;20.16;100.00;156545.13;4974898;28;20474;-76
2022/07/21 03:41:59;;;;;;;11.60;10.50;;;;;;;20.18;100.00;156550.34;4991978;28;20441;-76
2022/07/21 03:44:25;;;;;;;10.90;10.00;;;;;;;20.17;100.00;156549.06;4994765;28;20437;-76
2022/07/21 03:46:52;;;;;;;10.43;9.43;;;;;;;20.21;100.00;156559.50;4978317;28;20837;-76
2022/07/21 03:49:19;;;;;;;10.97;9.90;;;;;;;20.23;100.00;156563.38;4996300;28;20461;-76
2022/07/21 03:51:46;;;;;;;10.60;9.50;;;;;;;20.21;100.00;156559.50;4978558;28;20560;-76
2022/07/21 03:54:14;;;;;;;11.77;10.67;;;;;;;20.20;100.00;156556.84;4996244;28;20430;-75
2022/07/21 03:56:40;;;;;;;11.33;10.23;;;;;;;20.19;100.00;156554.28;4978493;28;20533;-75
2022/07/21 03:59:07;;;;;;;10.43;9.47;;;;;;;20.15;100.00;156543.81;4996240;28;20515;-75
2022/07/21 04:01:34;;;;;;;10.60;9.50;;;;;;;20.12;100.00;156536.00;4994553;28;20958;-75
2022/07/21 04:04:00;;;;;;;10.33;9.33;;;;;;;20.18;100.00;156551.66;4995775;28;20441;-76
2022/07/21 04:06:27;;;;;;;10.40;9.40;;;;;;;20.15;100.00;156543.81;4978260;28;20430;-75
2022/07/21 04:08:54;;;;;;;11.67;10.60;;;;;;;19.99;100.00;156502.09;4978092;28;20524;-76
2022/07/21 04:11:22;;;;;;;11.40;10.33;;;;;;;19.99;100.00;156502.09;4995762;28;20430;-75
2022/07/21 04:13:49;;;;;;;10.20;9.10;;;;;;;20.01;100.00;156507.34;4978311;28;20787;-75
2022/07/21 04:16:16;;;;;;;11.10;9.93;;;;;;;19.95;100.00;156493.00;4994135;28;20437;-75
2022/07/21 04:18:42;;;;;;;9.53;8.53;;;;;;;19.95;100.00;156493.00;4994022;28;20543;-76
2022/07/21 04:21:09;;;;;;;10.77;9.77;;;;;;;20.01;100.00;156507.34;4995927;28;20465;-76
2022/07/21 04:23:36;;;;;;;11.07;9.97;;;;;;;20.00;100.00;156504.72;4995490;28;20441;-75
2022/07/21 04:26:02;;;;;;;11.63;10.43;;;;;;;19.99;100.00;156502.09;4977952;28;20500;-75
2022/07/21 04:28:30;;;;;;;11.00;9.90;;;;;;;19.97;100.00;156496.88;4977507;28;20575;-75
2022/07/21 04:30:57;;;;;;;11.50;10.30;;;;;;;19.97;100.00;156496.88;4995312;28;20439;-75
2022/07/21 04:33:25;;;;;;;11.67;10.50;;;;;;;19.95;100.00;156493.00;4993595;28;20453;-75
2022/07/21 04:35:52;;;;;;;10.60;9.60;;;;;;;19.96;100.00;156495.56;4978204;28;20429;-75
2022/07/21 04:38:18;;;;;;;11.00;9.90;;;;;;;20.04;100.00;156515.19;4977687;28;20811;-75
2022/07/21 04:40:45;;;;;;;12.20;10.90;;;;;;;20.04;100.00;156515.19;4995214;28;20516;-75
2022/07/21 04:43:12;;;;;;;11.23;10.23;;;;;;;20.10;100.00;156530.78;4977751;28;20495;-75
2022/07/21 04:45:40;;;;;;;11.30;10.20;;;;;;;20.07;100.00;156521.69;4978090;28;20513;-75
2022/07/21 04:48:06;;;;;;;10.60;9.50;;;;;;;20.05;100.00;156519.06;4995195;28;20440;-75
2022/07/21 04:50:33;;;;;;;12.10;10.90;;;;;;;20.07;100.00;156522.94;4983674;28;20488;-76
2022/07/21 04:53:00;;;;;;;11.70;10.50;;;;;;;20.07;100.00;156522.94;5013369;28;20503;-76
2022/07/21 04:55:27;;;;;;;10.73;9.73;;;;;;;20.16;100.00;156545.13;5014537;28;20465;-75
2022/07/21 04:57:57;;;;;;;13.57;10.80;;;;;;;20.28;100.00;156576.50;5013006;28;20455;-74
2022/07/21 05:00:25;;;;;;;11.47;10.10;;;;;;;20.45;100.00;156620.84;5013780;28;20425;-75
2022/07/21 05:02:54;;;;;;;12.07;10.87;;;;;;;20.60;100.00;156661.28;4996853;28;20487;-74
2022/07/21 05:05:21;;;;;;;12.47;10.90;;;;;;;20.77;100.00;156703.03;5014986;28;20841;-74
2022/07/21 05:07:48;;;;;;;11.30;9.67;;;;;;;20.98;100.00;156757.81;4997659;28;20452;-74
2022/07/21 05:10:17;;;;;;;11.50;10.03;;;;;;;21.07;100.00;156781.38;4977173;28;20470;-75
2022/07/21 05:12:44;;;;;;;11.70;10.60;;;;;;;21.26;100.00;156830.94;4977237;28;20438;-74
2022/07/21 05:15:12;;;;;;;14.03;10.50;;;;;;;21.35;100.00;156854.44;4994697;28;20465;-75
2022/07/21 05:17:39;;;;;;;11.40;9.47;;;;;;;21.41;100.00;156870.13;4994465;28;20791;-75
2022/07/21 05:20:08;;;;;;;11.43;10.33;;;;;;;21.56;100.00;156909.28;4994755;28;20972;-75
2022/07/21 05:22:35;;;;;;;11.23;10.23;;;;;;;21.64;100.00;156930.16;4994493;28;20437;-75
2022/07/21 05:25:02;;;;;;;12.60;10.57;;;;;;;21.76;100.00;156961.47;4994353;28;20790;-75
2022/07/21 05:27:28;;;;;;;11.10;9.77;;;;;;;21.95;100.00;157009.84;4994128;28;20500;-76
2022/07/21 05:29:55;;;;;;;10.87;9.80;;;;;;;22.16;100.00;157063.41;4976924;28;20469;-76
2022/07/21 05:32:22;;;;;;;10.60;9.53;;;;;;;22.34;100.00;157110.44;4994029;28;20437;-76
2022/07/21 05:34:49;;;;;;;10.83;9.73;;;;;;;22.49;100.00;157149.59;4994506;28;20441;-76
2022/07/21 05:37:17;;;;;;;11.00;9.87;;;;;;;22.71;98.69;157207.16;4994177;28;20465;-77
2022/07/21 05:39:44;;;;;;;10.20;9.30;;;;;;;22.80;98.57;157230.63;4993458;28;20434;-77
2022/07/21 05:42:10;;;;;;;11.63;10.53;;;;;;;22.87;97.87;157248.97;4976470;28;20561;-76
2022/07/21 05:44:37;;;;;;;11.40;10.40;;;;;;;22.88;97.80;157250.22;4993180;28;20436;-77
2022/07/21 05:47:04;;;;;;;11.13;10.10;;;;;;;22.86;96.72;157246.31;4976412;28;20449;-77
2022/07/21 05:49:31;;;;;;;11.43;10.43;;;;;;;22.94;97.07;157265.91;4992346;28;20805;-77
2022/07/21 05:51:57;;;;;;;11.33;10.33;;;;;;;23.09;97.58;157303.84;4976472;28;20477;-77
2022/07/21 05:54:25;;;;;;;11.27;10.17;;;;;;;23.24;96.73;157344.34;4975657;28;20473;-76
2022/07/21 05:56:52;;;;;;;11.47;10.30;;;;;;;23.39;95.33;157382.28;4975291;28;21046;-77
2022/07/21 05:59:19;;;;;;;11.53;10.43;;;;;;;23.49;95.27;157408.41;4993322;28;20938;-77
2022/07/21 06:01:46;;;;;;;11.30;10.23;;;;;;;23.56;94.33;157428.00;4991331;28;20941;-77
2022/07/21 06:04:13;;;;;;;11.27;10.30;;;;;;;23.56;94.83;157428.00;4988224;28;20548;-77
2022/07/21 06:06:39;;;;;;;11.93;10.67;;;;;;;23.62;93.65;157442.38;4989186;28;20450;-77
2022/07/21 06:09:06;;;;;;;11.53;10.33;;;;;;;23.96;93.58;157531.28;4990911;28;20512;-77
2022/07/21 06:11:34;;;;;;;11.30;10.17;;;;;;;24.18;90.88;157587.56;4991289;28;20445;-77
2022/07/21 06:14:01;;;;;;;12.20;11.03;;;;;;;24.15;86.36;157581.03;4990810;28;20449;-77
2022/07/21 06:16:28;;;;;;;10.70;9.70;;;;;;;24.13;88.36;157575.81;4992247;28;20646;-76
2022/07/21 06:18:54;;;;;;;11.43;10.30;;;;;;;24.29;90.45;157615.03;4975516;28;20508;-77
2022/07/21 06:21:21;;;;;;;11.50;10.50;;;;;;;24.58;90.40;157692.22;4975907;28;20819;-77
2022/07/21 06:23:48;;;;;;;10.97;9.87;;;;;;;24.91;88.95;157777.31;4974978;28;20473;-77
2022/07/21 06:26:15;;;;;;;11.50;10.40;;;;;;;24.76;83.11;157739.31;4992897;28;20433;-77
2022/07/21 06:28:43;;;;;;;11.73;10.73;;;;;;;24.54;85.85;157680.47;4975210;28;20433;-77
2022/07/21 06:31:09;;;;;;;11.50;10.40;;;;;;;24.65;87.83;157710.50;4992695;28;20547;-77
2022/07/21 06:33:36;;;;;;;11.13;10.13;;;;;;;24.59;86.55;157694.84;5003993;28;20547;-77
2022/07/21 06:36:05;;;;;;;11.00;10.00;;;;;;;24.52;84.35;157675.19;4975759;28;20849;-77
2022/07/21 06:38:32;;;;;;;10.63;9.73;;;;;;;24.23;87.47;157601.97;4975263;28;20456;-77
2022/07/21 06:40:59;;;;;;;11.53;10.53;;;;;;;24.08;85.08;157562.75;4992946;28;20422;-77
2022/07/21 06:43:25;;;;;;;11.67;10.50;;;;;;;24.38;84.25;157639.91;4991587;28;20786;-77
2022/07/21 06:45:53;;;;;;;10.97;9.97;;;;;;;24.58;81.72;157692.22;4975911;28;20461;-77
2022/07/21 06:48:21;;;;;;;11.03;10.03;;;;;;;24.90;82.02;157773.38;4975169;28;20458;-77
2022/07/21 06:50:48;;;;;;;11.10;10.10;;;;;;;25.15;80.70;157840.09;4993006;28;20469;-77
2022/07/21 06:53:15;;;;;;;11.37;10.37;;;;;;;25.45;80.87;157917.31;4993057;28;20453;-77
2022/07/21 06:55:42;;;;;;;10.93;9.83;;;;;;;25.40;76.11;157905.53;4975349;28;20445;-77
2022/07/21 06:58:13;;;;;;;10.80;9.90;;;;;;;25.53;78.96;157938.31;4992739;28;20453;-77
2022/07/21 07:00:39;;;;;;;10.30;9.50;;;;;;;25.72;79.21;157986.72;4975096;28;20426;-77
2022/07/21 07:03:08;;;;;;;10.80;9.73;;;;;;;25.56;76.14;157944.84;4993056;28;20437;-77
2022/07/21 07:05:34;;;;;;;10.17;9.27;;;;;;;25.65;72.42;157969.75;4992526;28;20469;-77
2022/07/21 07:08:01;;;;;;;9.80;9.00;;;;;;;25.86;74.47;158023.41;4992154;28;20532;-77
2022/07/21 07:10:28;;;;;;;10.10;9.20;;;;;;;26.16;75.30;158101.97;4974962;28;20524;-77
2022/07/21 07:12:55;;;;;;;9.97;9.03;;;;;;;25.91;71.09;158037.81;4992532;28;20425;-77
2022/07/21 07:15:22;;;;;;;10.83;9.90;;;;;;;26.12;70.27;158091.47;4975282;28;20862;-77
2022/07/21 07:17:49;;;;;;;13.17;8.93;;;;;;;26.34;68.85;158147.84;4991695;28;20782;-77
2022/07/21 07:20:17;;;;;;;10.37;9.47;;;;;;;26.68;69.51;158235.59;4974836;28;20437;-77
2022/07/21 07:22:44;;;;;;;10.23;9.30;;;;;;;26.57;69.19;158209.41;4991110;28;20797;-77
2022/07/21 07:25:11;;;;;;;9.47;8.67;;;;;;;26.80;66.41;158267.06;4992246;28;20440;-77
2022/07/21 07:27:38;;;;;;;10.10;9.30;;;;;;;26.91;65.10;158295.88;4974390;28;20476;-77
2022/07/21 07:30:06;;;;;;;9.80;9.00;;;;;;;27.03;62.97;158328.63;4991808;28;20568;-77
2022/07/21 07:32:32;;;;;;;11.10;10.20;;;;;;;27.31;63.46;158400.69;5001884;28;20557;-77
2022/07/21 07:34:59;;;;;;;9.47;8.67;;;;;;;27.57;65.87;158468.91;4992093;28;20469;-77
2022/07/21 07:37:27;;;;;;;10.30;9.40;;;;;;;27.67;62.76;158493.78;4975026;28;20441;-77
2022/07/21 07:39:54;;;;;;;10.10;9.30;;;;;;;27.58;63.73;158471.53;4974336;28;20481;-77
2022/07/21 07:42:21;;;;;;;9.50;8.70;;;;;;;27.99;61.73;158576.34;4974957;28;20434;-77
2022/07/21 07:44:47;;;;;;;10.00;9.10;;;;;;;27.91;60.61;158556.69;4974666;28;20437;-77
2022/07/21 07:47:14;;;;;;;9.27;8.40;;;;;;;28.00;59.27;158580.31;4974899;28;20493;-77
2022/07/21 07:49:41;;;;;;;9.70;8.90;;;;;;;28.04;60.02;158590.84;4974386;28;20884;-77
2022/07/21 07:52:08;;;;;;;10.10;9.30;;;;;;;28.02;62.02;158585.59;4992426;28;20446;-77
2022/07/21 07:54:36;;;;;;;12.10;9.37;;;;;;;27.99;60.37;158576.34;4991992;28;20885;-77
2022/07/21 07:57:02;;;;;;;9.03;8.33;;;;;;;28.12;61.35;158610.50;4974756;28;20504;-77
2022/07/21 07:59:29;;;;;;;10.90;9.80;;;;;;;28.41;60.08;158686.53;4991398;28;20469;-77
2022/07/21 08:01:56;;;;;;;10.40;9.40;;;;;;;28.65;58.47;158748.22;4992177;28;20444;-77
2022/07/21 08:04:22;;;;;;;10.63;9.60;;;;;;;28.76;55.67;158778.41;4974686;28;20456;-78
2022/07/21 08:06:49;;;;;;;9.63;8.73;;;;;;;28.73;58.16;158769.19;4992202;28;20437;-77
2022/07/21 08:09:18;;;;;;;10.27;9.43;;;;;;;28.87;56.28;158805.94;4974135;28;20767;-77
2022/07/21 08:11:47;;;;;;;9.30;8.60;;;;;;;29.09;56.89;158863.69;4974383;28;20445;-77
2022/07/21 08:14:14;;;;;;;11.03;9.47;;;;;;;29.18;54.46;158885.94;4991626;28;20446;-78
2022/07/21 08:16:43;;;;;;;10.23;9.43;;;;;;;29.04;53.09;158849.25;4974527;28;20929;-78
2022/07/21 08:19:10;;;;;;;9.60;8.80;;;;;;;29.18;53.98;158887.25;4974160;28;20433;-78
2022/07/21 08:21:37;;;;;;;10.17;9.23;;;;;;;29.08;55.23;158859.72;4974472;28;20611;-78
2022/07/21 08:24:04;;;;;;;10.77;9.67;;;;;;;28.79;57.96;158784.94;4992015;28;20426;-78
2022/07/21 08:26:31;;;;;;;9.93;9.13;;;;;;;28.57;55.08;158728.50;4991415;28;20468;-78
2022/07/21 08:28:59;;;;;;;9.77;8.93;;;;;;;28.26;57.41;158647.22;4992434;28;20444;-78
2022/07/21 08:31:26;;;;;;;9.47;8.67;;;;;;;28.32;58.59;158662.97;4978717;28;20461;-78
2022/07/21 08:33:52;;;;;;;9.50;8.73;;;;;;;28.39;57.74;158682.63;4995564;28;20939;-78
2022/07/21 08:36:19;;;;;;;8.77;8.07;;;;;;;28.57;55.21;158728.50;4977662;28;20438;-78
2022/07/21 08:38:46;;;;;;;8.97;8.20;;;;;;;28.88;55.70;158808.59;4993846;28;20451;-78
2022/07/21 08:41:13;;;;;;;8.77;8.07;;;;;;;28.79;53.63;158784.94;4994999;28;20425;-78
2022/07/21 08:43:40;;;;;;;8.23;7.60;;;;;;;29.06;53.41;158854.47;4995323;28;20430;-78
2022/07/21 08:46:08;;;;;;;8.87;8.07;;;;;;;29.17;53.05;158883.34;4995024;28;20436;-78
2022/07/21 08:48:37;;;;;;;8.50;7.80;;;;;;;28.85;54.44;158802.03;4994819;28;20438;-78
2022/07/21 08:51:04;;;;;;;8.80;8.10;;;;;;;28.75;54.91;158774.50;4994959;28;20568;-78
2022/07/21 08:53:30;;;;;;;8.60;7.67;;;;;;;28.62;54.56;158741.66;4995492;28;20459;-78
2022/07/21 08:55:57;;;;;;;8.43;7.73;;;;;;;28.47;57.93;158702.28;4994875;28;20988;-78
2022/07/21 08:58:24;;;;;;;8.00;7.40;;;;;;;28.48;60.88;158704.94;4977513;28;20485;-77
2022/07/21 09:00:51;;;;;;;8.43;7.73;;;;;;;28.45;57.36;158695.72;4977409;28;20488;-78
2022/07/21 09:03:21;;;;;;;8.53;7.77;;;;;;;28.50;57.70;158710.16;4977707;28;20451;-77
2022/07/21 09:06:07;;;;;;;8.33;7.67;;;;;;;28.42;52.85;158689.19;4977053;28;20540;-77
2022/07/21 09:08:35;;;;;;;7.40;6.70;;;;;;;28.71;53.71;158765.28;4977485;28;20504;-77
2022/07/21 09:11:10;;;;;;;8.67;7.97;;;;;;;28.79;54.57;158786.28;4977223;28;20567;-78
2022/07/21 09:13:36;;;;;;;8.37;7.57;;;;;;;28.67;52.65;158754.81;4977327;28;20831;-78
2022/07/21 09:16:03;;;;;;;7.80;7.10;;;;;;;28.49;53.83;158707.53;4994556;28;20833;-78
2022/07/21 09:18:32;;;;;;;7.83;7.23;;;;;;;28.52;56.28;158715.41;4977158;28;20465;-78
2022/07/21 09:21:00;;;;;;;9.37;8.57;;;;;;;28.64;57.01;158746.94;4976836;28;20446;-78
2022/07/21 09:23:27;;;;;;;8.30;7.60;;;;;;;28.87;52.70;158805.94;4977400;28;20438;-78
2022/07/21 09:25:55;;;;;;;8.47;7.77;;;;;;;28.94;57.10;158825.59;4976927;28;20544;-78
2022/07/21 09:28:24;;;;;;;8.40;7.70;;;;;;;28.83;52.36;158795.47;4976603;28;20520;-78
2022/07/21 09:30:55;;;;;;;8.47;7.77;;;;;;;28.77;50.47;158781.03;4998048;28;20512;-78
2022/07/21 09:33:24;;;;;;;8.27;7.53;;;;;;;28.56;54.13;158724.59;4993406;28;20441;-77
2022/07/21 09:35:58;;;;;;;8.50;7.80;;;;;;;28.45;53.04;158697.06;4976867;28;20453;-78
2022/07/21 09:38:25;;;;;;;8.40;7.70;;;;;;;28.32;56.14;158662.97;4976712;28;20461;-78
2022/07/21 09:40:52;;;;;;;8.80;8.10;;;;;;;28.28;55.74;158653.75;4975762;28;20421;-78
2022/07/21 09:43:33;;;;;;;8.50;7.70;;;;;;;28.03;55.72;158586.91;4976882;28;20520;-78
2022/07/21 09:46:02;;;;;;;8.27;7.57;;;;;;;27.80;53.28;158529.16;4994058;28;20441;-77
2022/07/21 09:48:37;;;;;;;8.50;7.80;;;;;;;28.07;58.51;158597.38;4976580;28;20456;-78
2022/07/21 09:51:28;;;;;;;8.87;7.97;;;;;;;28.27;55.38;158651.19;4993953;28;20479;-77
2022/07/21 09:54:00;;;;;;;8.17;7.47;;;;;;;28.20;54.29;158631.47;4994240;28;20916;-78
2022/07/21 09:56:29;;;;;;;7.43;6.80;;;;;;;28.02;53.63;158584.28;4976177;28;20441;-77
2022/07/21 09:58:57;;;;;;;7.20;6.60;;;;;;;28.22;53.58;158636.75;4976193;28;20454;-78
2022/07/21 10:01:24;;;;;;;8.17;7.47;;;;;;;28.36;51.02;158673.44;4976347;28;20437;-78
2022/07/21 10:03:52;;;;;;;8.40;7.60;;;;;;;28.57;51.20;158728.50;4976510;28;20433;-77
2022/07/21 10:06:21;;;;;;;8.30;7.70;;;;;;;28.71;58.05;158763.97;4976348;28;20445;-77
2022/07/21 10:08:48;;;;;;;8.50;7.80;;;;;;;28.79;50.24;158786.28;4975967;28;20433;-77
2022/07/21 10:11:15;;;;;;;8.20;7.50;;;;;;;28.90;50.83;158815.13;4976121;28;20477;-77
2022/07/21 10:13:42;;;;;;;7.87;7.17;;;;;;;28.90;49.53;158813.81;4993507;28;20470;-77
2022/07/21 10:16:10;;;;;;;6.47;6.00;;;;;;;29.18;48.04;158885.94;4993861;28;20548;-77
2022/07/21 10:18:40;;;;;;;7.37;6.67;;;;;;;29.22;49.45;158896.50;4975771;28;20548;-77
2022/07/21 10:21:14;;;;;;;7.80;7.20;;;;;;;29.29;56.32;158916.19;4992268;28;20434;-77
2022/07/21 10:23:43;;;;;;;6.93;6.43;;;;;;;29.38;53.70;158938.50;4992150;28;20848;-77
2022/07/21 10:26:11;;;;;;;7.27;6.67;;;;;;;29.47;51.72;158962.09;4992005;28;20449;-78
2022/07/21 10:28:38;;;;;;;6.30;5.87;;;;;;;29.68;48.12;159017.19;4992941;28;20430;-77
2022/07/21 10:31:16;;;;;;;5.73;5.33;;;;;;;29.71;49.21;159023.75;4999002;28;20469;-77
2022/07/21 10:33:55;;;;;;;6.33;5.83;;;;;;;29.77;53.35;159040.84;4991914;28;20441;-78
2022/07/21 10:36:45;;;;;;;6.30;5.70;;;;;;;29.75;44.10;159035.59;4975830;28;20521;-77
2022/07/21 10:39:26;;;;;;;5.47;5.07;;;;;;;29.63;47.13;159002.81;4973128;28;20453;-77
2022/07/21 10:41:56;;;;;;;6.07;5.47;;;;;;;29.67;46.61;159014.59;4993126;28;20433;-78
2022/07/21 10:44:43;;;;;;;6.30;5.80;;;;;;;29.59;44.55;158993.59;4975522;28;20441;-84
2022/07/21 10:47:12;;;;;;;6.20;5.70;;;;;;;29.70;44.82;159022.47;4993192;28;20446;-83
2022/07/21 10:49:44;;;;;;;6.63;6.03;;;;;;;29.67;44.88;159014.59;4972090;28;20453;-83
2022/07/21 10:52:45;;;;;;;6.90;6.40;;;;;;;29.87;44.63;159065.81;4986046;28;20506;-83
2022/07/21 10:55:23;;;;;;;8.73;5.57;;;;;;;29.91;44.44;159076.34;4974407;28;20945;-84
2022/07/21 10:58:13;;;;;;;7.00;6.40;;;;;;;29.99;43.79;159098.66;4979875;28;20468;-84
2022/07/21 11:00:45;;;;;;;6.23;5.73;;;;;;;30.05;43.23;159114.38;4991605;28;20450;-84
2022/07/21 11:03:18;;;;;;;6.40;5.80;;;;;;;29.83;41.94;159055.34;4987271;28;20797;-84
2022/07/21 11:06:13;;;;;;;6.10;5.60;;;;;;;29.78;44.09;159043.47;4988465;28;20469;-84
2022/07/21 11:08:41;;;;;;;5.93;5.40;;;;;;;29.70;43.83;159021.16;4992312;28;20477;-83
2022/07/21 11:11:11;;;;;;;5.80;5.30;;;;;;;29.80;43.98;159048.78;4975168;28;20968;-83
2022/07/21 11:14:00;;;;;;;5.90;5.40;;;;;;;29.74;52.79;159032.97;4975083;28;20511;-84
2022/07/21 11:17:09;;;;;;;5.20;4.80;;;;;;;29.51;56.74;158972.59;4992559;28;20426;-83
2022/07/21 11:19:42;;;;;;;5.80;5.30;;;;;;;29.43;46.05;158951.63;4967740;28;20441;-84